createdAt,value
2023-04-04T00:00:21.803Z,71.73
2023-04-04T00:04:24.625Z,73.51
2023-04-04T00:08:27.390Z,72.40
2023-04-04T00:12:30.165Z,74.61
2023-04-04T00:16:35.073Z,73.18
2023-04-04T00:20:37.961Z,73.67
2023-04-04T00:24:40.954Z,74.95
2023-04-04T00:28:43.606Z,74.37
2023-04-04T00:32:47.862Z,74.44
2023-04-04T00:36:50.618Z,74.96
2023-04-04T00:40:53.378Z,76.03
2023-04-04T00:44:56.169Z,76.51
2023-04-04T00:49:00.457Z,76.41
2023-04-04T00:53:03.468Z,77.56
2023-04-04T00:57:09.321Z,75.45
2023-04-04T01:01:12.202Z,74.89
2023-04-04T01:05:16.499Z,77.19
2023-04-04T01:09:19.785Z,76.55
2023-04-04T01:13:22.521Z,77.35
2023-04-04T01:17:25.497Z,77.84
2023-04-04T01:21:30.956Z,80.80
2023-04-04T01:25:34.976Z,81.01
2023-04-04T01:29:37.684Z,78.18
2023-04-04T01:33:44.705Z,76.75
2023-04-04T01:37:57.086Z,77.26
2023-04-04T01:42:02.852Z,78.44
2023-04-04T01:46:06.270Z,76.92
2023-04-04T01:50:10.466Z,76.24
2023-04-04T01:54:13.417Z,77.61
2023-04-04T01:58:17.399Z,78.13
2023-04-04T02:02:20.427Z,77.32
2023-04-04T02:06:23.440Z,74.89
2023-04-04T02:10:26.199Z,75.17
2023-04-04T02:14:30.449Z,75.61
2023-04-04T02:18:33.516Z,75.96
2023-04-04T02:22:36.409Z,76.29
2023-04-04T02:26:39.079Z,75.06
2023-04-04T02:30:43.199Z,76.47
2023-04-04T02:34:45.845Z,75.82
2023-04-04T02:38:48.531Z,76.08
2023-04-04T02:42:51.264Z,74.53
2023-04-04T02:46:55.848Z,73.89
2023-04-04T02:50:58.648Z,73.66
2023-04-04T02:55:01.411Z,72.87
2023-04-04T02:59:04.553Z,73.42
2023-04-04T03:03:09.371Z,76.24
2023-04-04T03:07:12.686Z,80.05
2023-04-04T03:11:18.718Z,76.61
2023-04-04T03:15:21.550Z,77.65
2023-04-04T03:19:25.603Z,74.44
2023-04-04T03:23:29.280Z,76.68
2023-04-04T03:27:32.577Z,75.02
2023-04-04T03:31:35.511Z,76.26
2023-04-04T03:35:43.190Z,75.61
2023-04-04T03:39:46.355Z,76.07
2023-04-04T03:43:49.427Z,77.35
2023-04-04T03:47:52.180Z,76.67
2023-04-04T03:51:56.574Z,76.82
2023-04-04T03:55:59.376Z,75.60
2023-04-04T04:00:02.030Z,76.54
2023-04-04T04:04:04.769Z,75.66
2023-04-04T04:08:09.164Z,73.22
2023-04-04T04:12:11.941Z,75.69
2023-04-04T04:16:14.682Z,77.21
2023-04-04T04:20:17.406Z,79.80
2023-04-04T04:24:21.634Z,77.59
2023-04-04T04:28:33.879Z,77.21
2023-04-04T04:32:37.111Z,75.79
2023-04-04T04:36:39.865Z,78.36
2023-04-04T04:40:43.936Z,74.31
2023-04-04T04:44:46.646Z,76.16
2023-04-04T04:48:49.497Z,75.95
2023-04-04T04:52:52.733Z,76.16
2023-04-04T04:56:57.001Z,78.94
2023-04-04T05:00:59.996Z,78.70
2023-04-04T05:05:02.811Z,78.96
2023-04-04T05:09:05.659Z,80.34
2023-04-04T05:13:10.179Z,81.19
2023-04-04T05:17:12.869Z,80.56
2023-04-04T05:21:16.238Z,80.57
2023-04-04T05:25:19.041Z,76.79
2023-04-04T05:29:23.084Z,77.95
2023-04-04T05:33:25.830Z,77.50
2023-04-04T05:37:29.301Z,73.71
2023-04-04T05:41:32.164Z,73.18
2023-04-04T05:45:36.901Z,74.66
2023-04-04T05:49:39.552Z,71.55
2023-04-04T05:53:42.200Z,70.96
2023-04-04T05:57:49.383Z,70.46
2023-04-04T06:01:53.427Z,71.30
2023-04-04T06:05:56.413Z,71.56
2023-04-04T06:09:59.097Z,71.14
2023-04-04T06:14:01.819Z,68.97
2023-04-04T06:18:06.040Z,64.69
2023-04-04T06:22:08.830Z,64.47
2023-04-04T06:26:12.599Z,64.14
2023-04-04T06:30:17.190Z,62.83
2023-04-04T06:34:22.757Z,63.70
2023-04-04T06:38:25.568Z,63.09
2023-04-04T06:42:28.247Z,58.25
2023-04-04T06:46:31.687Z,55.80
2023-04-04T06:50:36.642Z,54.97
2023-04-04T06:54:39.636Z,53.68
2023-04-04T06:58:43.016Z,50.60
2023-04-04T07:02:45.741Z,57.55
2023-04-04T07:06:49.856Z,57.18
2023-04-04T07:10:52.632Z,54.75
2023-04-04T07:14:55.608Z,54.02
2023-04-04T07:18:58.486Z,54.98
2023-04-04T07:23:02.996Z,59.21
2023-04-04T07:27:05.611Z,60.39
2023-04-04T07:31:08.347Z,61.94
2023-04-04T07:35:11.300Z,55.74
2023-04-04T07:39:15.648Z,57.77
2023-04-04T07:43:18.279Z,54.56
2023-04-04T07:47:21.436Z,55.30
2023-04-04T07:51:29.428Z,59.49
2023-04-04T07:55:33.497Z,60.12
2023-04-04T07:59:36.687Z,54.30
2023-04-04T08:03:39.557Z,57.05
2023-04-04T08:07:42.669Z,59.70
2023-04-04T08:11:46.832Z,54.39
2023-04-04T08:15:49.516Z,55.82
2023-04-04T08:19:52.342Z,54.60
2023-04-04T08:23:55.690Z,54.45
2023-04-04T08:27:59.906Z,54.90
2023-04-04T08:32:02.690Z,51.23
2023-04-04T08:36:05.896Z,52.84
2023-04-04T08:40:10.098Z,54.93
2023-04-04T08:44:15.493Z,53.12
2023-04-04T08:48:18.957Z,53.10
2023-04-04T08:52:25.103Z,51.63
2023-04-04T08:56:28.718Z,50.69
2023-04-04T09:00:32.994Z,50.61
2023-04-04T09:04:36.003Z,50.66
2023-04-04T09:08:38.973Z,53.00
2023-04-04T09:12:44.237Z,50.74
2023-04-04T09:16:48.294Z,49.69
2023-04-04T09:20:51.055Z,56.72
2023-04-04T09:24:53.705Z,54.58
2023-04-04T09:28:57.036Z,52.02
2023-04-04T09:33:04.120Z,54.38
2023-04-04T09:37:08.232Z,52.24
2023-04-04T09:41:11.302Z,50.86
2023-04-04T09:45:22.406Z,50.98
2023-04-04T09:49:34.155Z,52.52
2023-04-04T09:53:38.009Z,50.64
2023-04-04T09:57:41.056Z,51.27
2023-04-04T10:01:45.681Z,57.62
2023-04-04T10:05:56.215Z,49.64
2023-04-04T10:10:02.699Z,53.49
2023-04-04T10:14:05.401Z,53.18
2023-04-04T10:18:10.051Z,53.84
2023-04-04T10:22:15.436Z,54.84
2023-04-04T10:26:18.107Z,54.90
2023-04-04T10:30:20.811Z,51.33
2023-04-04T10:34:26.718Z,48.89
2023-04-04T10:38:33.577Z,49.86
2023-04-04T10:42:40.367Z,49.76
2023-04-04T10:46:44.748Z,46.96
2023-04-04T10:50:48.026Z,49.14
2023-04-04T10:54:53.943Z,48.48
2023-04-04T10:59:10.787Z,44.63
2023-04-04T11:03:14.942Z,44.31
2023-04-04T11:07:18.393Z,46.11
2023-04-04T11:11:23.234Z,45.48
2023-04-04T11:15:26.664Z,46.05
2023-04-04T11:19:31.706Z,47.57
2023-04-04T11:24:18.947Z,47.18
2023-04-04T11:28:29.436Z,51.24
2023-04-04T11:32:50.126Z,44.06
2023-04-04T11:36:56.136Z,49.42
2023-04-04T11:40:59.053Z,43.59
2023-04-04T11:45:07.589Z,47.64
2023-04-04T11:49:11.375Z,47.27
2023-04-04T11:53:14.218Z,44.96
2023-04-04T11:57:17.978Z,43.82
2023-04-04T12:01:22.236Z,40.67
2023-04-04T12:05:25.264Z,44.74
2023-04-04T12:09:28.397Z,43.44
2023-04-04T12:13:32.234Z,46.00
2023-04-04T12:17:40.395Z,48.41
2023-04-04T12:21:43.672Z,44.04
2023-04-04T12:25:49.834Z,44.78
2023-04-04T12:29:52.866Z,44.12
2023-04-04T12:33:56.992Z,42.22
2023-04-04T12:38:01.594Z,44.62
2023-04-04T12:42:05.383Z,41.28
2023-04-04T12:46:09.296Z,43.54
2023-04-04T12:50:21.804Z,47.94
2023-04-04T12:54:29.173Z,43.79
2023-04-04T12:58:34.921Z,45.00
2023-04-04T13:02:39.539Z,41.85
2023-04-04T13:06:45.919Z,42.93
2023-04-04T13:11:02.906Z,41.74
2023-04-04T13:15:08.464Z,48.76
2023-04-04T13:19:11.120Z,43.74
2023-04-04T13:23:15.875Z,39.33
2023-04-04T13:27:18.529Z,43.48
2023-04-04T13:31:21.722Z,46.20
2023-04-04T13:35:24.555Z,43.70
2023-04-04T13:39:28.646Z,38.13
2023-04-04T13:43:31.342Z,43.20
2023-04-04T13:47:34.020Z,45.54
2023-04-04T13:51:36.678Z,42.88
2023-04-04T13:55:52.082Z,41.25
2023-04-04T14:00:04.955Z,40.72
2023-04-04T14:04:22.802Z,44.21
2023-04-04T14:08:26.885Z,40.83
2023-04-04T14:12:31.229Z,40.57
2023-04-04T14:16:34.014Z,41.74
2023-04-04T14:20:38.020Z,39.45
2023-04-04T14:24:41.332Z,46.60
2023-04-04T14:28:45.378Z,41.26
2023-04-04T14:32:48.159Z,40.57
2023-04-04T14:36:51.054Z,39.21
2023-04-04T14:40:53.715Z,41.24
2023-04-04T14:44:58.585Z,39.83
2023-04-04T14:49:01.352Z,37.86
2023-04-04T14:53:03.983Z,41.84
2023-04-04T14:57:06.787Z,39.16
2023-04-04T15:01:10.874Z,43.53
2023-04-04T15:05:14.609Z,36.99
2023-04-04T15:09:18.423Z,40.05
2023-04-04T15:13:21.566Z,40.37
2023-04-04T15:17:26.002Z,39.63
2023-04-04T15:21:29.078Z,38.38
2023-04-04T15:25:32.006Z,37.24
2023-04-04T15:29:34.678Z,43.09
2023-04-04T15:33:39.237Z,41.49
2023-04-04T15:37:41.911Z,40.61
2023-04-04T15:41:44.599Z,42.61
2023-04-04T15:45:47.464Z,37.98
2023-04-04T15:49:51.740Z,42.94
2023-04-04T15:53:56.106Z,40.79
2023-04-04T15:57:58.745Z,41.44
2023-04-04T16:02:01.435Z,38.93
2023-04-04T16:06:10.059Z,42.97
2023-04-04T16:10:12.822Z,40.28
2023-04-04T16:14:15.520Z,43.88
2023-04-04T16:18:18.262Z,42.47
2023-04-04T16:22:22.474Z,43.39
2023-04-04T16:26:25.237Z,41.43
2023-04-04T16:30:28.459Z,44.42
2023-04-04T16:34:31.166Z,43.58
2023-04-04T16:38:35.364Z,41.30
2023-04-04T16:42:38.029Z,42.93
2023-04-04T16:46:40.762Z,43.28
2023-04-04T16:50:43.536Z,46.76
2023-04-04T16:54:47.626Z,45.36
2023-04-04T16:58:50.449Z,43.83
2023-04-04T17:02:53.490Z,43.86
2023-04-04T17:06:56.400Z,50.40
2023-04-04T17:11:00.645Z,46.02
2023-04-04T17:15:04.044Z,47.43
2023-04-04T17:19:06.799Z,47.12
2023-04-04T17:23:09.468Z,47.19
2023-04-04T17:27:13.457Z,48.88
2023-04-04T17:31:16.669Z,51.07
2023-04-04T17:35:19.575Z,53.88
2023-04-04T17:39:22.648Z,52.71
2023-04-04T17:43:26.857Z,58.22
2023-04-04T17:47:30.124Z,59.79
2023-04-04T17:51:33.843Z,59.54
2023-04-04T17:55:36.711Z,54.37
2023-04-04T17:59:41.023Z,63.29
2023-04-04T18:03:44.367Z,61.73
2023-04-04T18:07:47.143Z,61.03
2023-04-04T18:11:50.189Z,61.92
2023-04-04T18:15:54.437Z,62.63
2023-04-04T18:19:58.895Z,63.95
2023-04-04T18:24:01.898Z,64.02
2023-04-04T18:28:04.558Z,65.14
2023-04-04T18:32:08.574Z,65.97
2023-04-04T18:36:11.308Z,67.94
2023-04-04T18:40:14.186Z,69.33
2023-04-04T18:44:16.998Z,69.86
2023-04-04T18:48:24.818Z,74.56
2023-04-04T18:52:27.483Z,71.31
2023-04-04T18:56:30.119Z,73.28
2023-04-04T19:00:32.751Z,74.40
2023-04-04T19:04:37.351Z,73.14
2023-04-04T19:08:40.377Z,73.05
2023-04-04T19:12:43.198Z,74.36
2023-04-04T19:16:46.248Z,73.62
2023-04-04T19:20:50.352Z,75.80
2023-04-04T19:24:53.040Z,74.43
2023-04-04T19:28:55.913Z,75.18
2023-04-04T19:32:58.722Z,75.49
2023-04-04T19:37:02.797Z,72.92
2023-04-04T19:41:09.566Z,75.82
2023-04-04T19:45:14.017Z,75.01
2023-04-04T19:49:17.961Z,74.91
2023-04-04T19:53:23.970Z,74.50
2023-04-04T19:57:27.405Z,76.94
2023-04-04T20:01:31.842Z,76.13
2023-04-04T20:06:04.291Z,77.56
2023-04-04T20:10:10.552Z,75.80
2023-04-04T20:14:14.272Z,79.52
2023-04-04T20:18:21.471Z,79.06
2023-04-04T20:22:24.304Z,78.57
2023-04-04T20:26:51.469Z,78.07
2023-04-04T20:30:54.847Z,77.04
2023-04-04T20:34:57.586Z,79.74
2023-04-04T20:39:00.850Z,79.54
2023-04-04T20:43:06.811Z,83.13
2023-04-04T20:47:30.221Z,79.99
2023-04-04T20:51:33.600Z,78.75
2023-04-04T20:55:36.692Z,80.94
2023-04-04T20:59:43.289Z,79.91
2023-04-04T21:03:47.176Z,78.94
2023-04-04T21:07:49.828Z,81.17
2023-04-04T21:11:53.267Z,80.41
2023-04-04T21:16:00.997Z,79.16
2023-04-04T21:20:06.218Z,80.79
2023-04-04T21:24:10.630Z,80.19
2023-04-04T21:28:13.538Z,83.95
2023-04-04T21:32:21.509Z,82.79
2023-04-04T21:36:29.292Z,83.88
2023-04-04T21:40:32.067Z,80.73
2023-04-04T21:44:34.941Z,79.17
2023-04-04T21:48:38.929Z,84.29
2023-04-04T21:52:42.221Z,80.24
2023-04-04T21:56:45.170Z,86.53
2023-04-04T22:00:47.862Z,81.16
2023-04-04T22:04:51.954Z,84.76
2023-04-04T22:08:56.053Z,85.85
2023-04-04T22:13:00.094Z,81.50
2023-04-04T22:17:03.077Z,83.88
2023-04-04T22:21:07.402Z,81.21
2023-04-04T22:25:10.449Z,79.08
2023-04-04T22:29:13.119Z,82.63
2023-04-04T22:33:15.792Z,86.31
2023-04-04T22:37:21.556Z,81.08
2023-04-04T22:41:27.230Z,80.12
2023-04-04T22:45:32.106Z,81.59
2023-04-04T22:49:37.756Z,84.05
2023-04-04T22:53:44.486Z,86.75
2023-04-04T22:57:47.412Z,85.61
2023-04-04T23:01:50.057Z,84.42
2023-04-04T23:05:52.995Z,80.29
2023-04-04T23:09:57.119Z,89.09
2023-04-04T23:14:00.399Z,88.01
2023-04-04T23:18:03.173Z,84.18
2023-04-04T23:22:06.076Z,88.99
2023-04-04T23:26:10.098Z,85.77
2023-04-04T23:30:13.536Z,84.24
2023-04-04T23:34:16.309Z,85.23
2023-04-04T23:38:18.977Z,88.57
2023-04-04T23:42:23.074Z,85.90
2023-04-04T23:46:26.260Z,85.76
2023-04-04T23:50:29.763Z,86.08
2023-04-04T23:54:32.675Z,84.53
2023-04-04T23:58:38.040Z,85.08
